sensor_id;sensor_type;location;lat;lon;timestamp;pressure;altitude;pressure_sealevel;temperature;humidity
71384;BME280;67558;52.166;5.004;2023-02-19T00:00:00;101823.78;;;12.26;72.63
71384;BME280;67558;52.166;5.004;2023-02-19T00:02:25;101828.72;;;12.35;72.56
71384;BME280;67558;52.166;5.004;2023-02-19T00:04:51;101834.09;;;12.35;72.42
71384;BME280;67558;52.166;5.004;2023-02-19T00:07:16;101830.56;;;12.34;72.39
71384;BME280;67558;52.166;5.004;2023-02-19T00:09:41;101836.00;;;12.39;72.41
71384;BME280;67558;52.166;5.004;2023-02-19T00:12:06;101836.81;;;12.40;72.54
71384;BME280;67558;52.166;5.004;2023-02-19T00:14:32;101839.44;;;12.35;72.63
71384;BME280;67558;52.166;5.004;2023-02-19T00:16:57;101841.31;;;12.34;72.44
71384;BME280;67558;52.166;5.004;2023-02-19T00:19:22;101842.63;;;12.32;72.84
71384;BME280;67558;52.166;5.004;2023-02-19T00:21:51;101838.00;;;12.27;72.61
71384;BME280;67558;52.166;5.004;2023-02-19T00:24:18;101837.97;;;12.22;72.78
71384;BME280;67558;52.166;5.004;2023-02-19T00:26:44;101848.41;;;12.23;72.83
71384;BME280;67558;52.166;5.004;2023-02-19T00:29:16;101846.81;;;12.22;72.89
71384;BME280;67558;52.166;5.004;2023-02-19T00:31:42;101841.66;;;12.16;72.85
71384;BME280;67558;52.166;5.004;2023-02-19T00:34:09;101841.44;;;12.22;72.72
71384;BME280;67558;52.166;5.004;2023-02-19T00:36:36;101836.38;;;12.26;72.54
71384;BME280;67558;52.166;5.004;2023-02-19T00:39:03;101839.88;;;12.26;72.58
71384;BME280;67558;52.166;5.004;2023-02-19T00:41:29;101847.84;;;12.21;73.00
71384;BME280;67558;52.166;5.004;2023-02-19T00:43:56;101846.81;;;12.22;72.91
71384;BME280;67558;52.166;5.004;2023-02-19T00:46:23;101851.38;;;12.22;72.91
71384;BME280;67558;52.166;5.004;2023-02-19T00:48:49;101856.28;;;12.30;72.29
71384;BME280;67558;52.166;5.004;2023-02-19T00:51:17;101853.31;;;12.26;72.56
71384;BME280;67558;52.166;5.004;2023-02-19T00:53:43;101854.91;;;12.27;72.61
71384;BME280;67558;52.166;5.004;2023-02-19T00:56:09;101858.66;;;12.26;72.21
71384;BME280;67558;52.166;5.004;2023-02-19T00:58:34;101865.63;;;12.27;72.43
71384;BME280;67558;52.166;5.004;2023-02-19T01:01:00;101872.38;;;12.30;72.42
71384;BME280;67558;52.166;5.004;2023-02-19T01:03:26;101864.09;;;12.32;72.15
71384;BME280;67558;52.166;5.004;2023-02-19T01:05:52;101865.72;;;12.33;72.14
71384;BME280;67558;52.166;5.004;2023-02-19T01:08:17;101874.84;;;12.37;71.97
71384;BME280;67558;52.166;5.004;2023-02-19T01:10:43;101863.59;;;12.35;72.05
71384;BME280;67558;52.166;5.004;2023-02-19T01:13:09;101870.19;;;12.27;71.89
71384;BME280;67558;52.166;5.004;2023-02-19T01:15:35;101879.13;;;12.33;71.68
71384;BME280;67558;52.166;5.004;2023-02-19T01:18:00;101878.50;;;12.25;71.91
71384;BME280;67558;52.166;5.004;2023-02-19T01:20:26;101872.56;;;12.23;71.89
71384;BME280;67558;52.166;5.004;2023-02-19T01:22:52;101884.41;;;12.27;71.75
71384;BME280;67558;52.166;5.004;2023-02-19T01:25:17;101889.72;;;12.22;72.03
71384;BME280;67558;52.166;5.004;2023-02-19T01:27:42;101879.50;;;12.19;71.72
71384;BME280;67558;52.166;5.004;2023-02-19T01:30:08;101889.41;;;12.19;71.77
71384;BME280;67558;52.166;5.004;2023-02-19T01:32:34;101874.63;;;12.16;71.71
71384;BME280;67558;52.166;5.004;2023-02-19T01:34:59;101879.13;;;12.11;71.77
71384;BME280;67558;52.166;5.004;2023-02-19T01:37:25;101881.03;;;12.15;71.85
71384;BME280;67558;52.166;5.004;2023-02-19T01:39:50;101881.00;;;12.10;71.90
71384;BME280;67558;52.166;5.004;2023-02-19T01:42:16;101880.19;;;12.09;72.02
71384;BME280;67558;52.166;5.004;2023-02-19T01:47:07;101880.50;;;12.13;71.65
71384;BME280;67558;52.166;5.004;2023-02-19T01:49:50;101896.59;;;12.13;71.75
71384;BME280;67558;52.166;5.004;2023-02-19T01:52:28;101893.66;;;12.15;71.40
71384;BME280;67558;52.166;5.004;2023-02-19T01:54:56;101894.16;;;12.12;71.66
71384;BME280;67558;52.166;5.004;2023-02-19T01:57:28;101890.41;;;12.13;71.56
71384;BME280;67558;52.166;5.004;2023-02-19T01:59:57;101898.16;;;12.09;71.44
71384;BME280;67558;52.166;5.004;2023-02-19T02:02:26;101895.47;;;12.09;71.84
71384;BME280;67558;52.166;5.004;2023-02-19T02:04:54;101907.25;;;12.08;71.68
71384;BME280;67558;52.166;5.004;2023-02-19T02:07:21;101895.78;;;12.13;71.35
71384;BME280;67558;52.166;5.004;2023-02-19T02:10:05;101893.66;;;12.15;71.05
71384;BME280;67558;52.166;5.004;2023-02-19T02:12:50;101895.28;;;12.16;71.34
71384;BME280;67558;52.166;5.004;2023-02-19T02:15:17;101897.66;;;12.12;71.39
71384;BME280;67558;52.166;5.004;2023-02-19T02:17:56;101896.59;;;12.13;71.08
71384;BME280;67558;52.166;5.004;2023-02-19T02:29:10;101906.63;;;12.01;71.67
71384;BME280;67558;52.166;5.004;2023-02-19T02:31:53;101906.63;;;12.01;71.77
71384;BME280;67558;52.166;5.004;2023-02-19T02:34:31;101907.66;;;12.00;71.59
71384;BME280;67558;52.166;5.004;2023-02-19T02:36:59;101908.97;;;11.97;71.66
71384;BME280;67558;52.166;5.004;2023-02-19T02:39:27;101921.34;;;11.98;71.83
71384;BME280;67558;52.166;5.004;2023-02-19T02:41:58;101910.28;;;11.95;71.94
71384;BME280;67558;52.166;5.004;2023-02-19T02:44:43;101915.66;;;11.95;71.72
71384;BME280;67558;52.166;5.004;2023-02-19T02:47:29;101921.03;;;11.95;71.77
71384;BME280;67558;52.166;5.004;2023-02-19T02:50:32;101922.56;;;11.91;72.12
71384;BME280;67558;52.166;5.004;2023-02-19T02:53:08;101920.13;;;11.89;71.94
71384;BME280;67558;52.166;5.004;2023-02-19T02:55:53;101917.69;;;11.87;71.98
71384;BME280;67558;52.166;5.004;2023-02-19T02:58:22;101918.72;;;11.86;72.23
71384;BME280;67558;52.166;5.004;2023-02-19T03:01:00;101930.53;;;11.85;72.16
71384;BME280;67558;52.166;5.004;2023-02-19T03:03:47;101923.53;;;11.84;72.03
71384;BME280;67558;52.166;5.004;2023-02-19T03:06:16;101930.44;;;11.80;72.16
71384;BME280;67558;52.166;5.004;2023-02-19T03:08:47;101930.44;;;11.80;72.31
71384;BME280;67558;52.166;5.004;2023-02-19T03:11:13;101924.38;;;11.68;72.03
71384;BME280;67558;52.166;5.004;2023-02-19T03:14:05;101940.84;;;11.77;72.19
71384;BME280;67558;52.166;5.004;2023-02-19T03:16:56;101937.59;;;11.75;72.15
71384;BME280;67558;52.166;5.004;2023-02-19T03:19:45;101946.22;;;11.77;72.06
71384;BME280;67558;52.166;5.004;2023-02-19T03:22:19;101944.75;;;11.69;72.26
71384;BME280;67558;52.166;5.004;2023-02-19T03:24:53;101944.75;;;11.69;72.08
71384;BME280;67558;52.166;5.004;2023-02-19T03:27:39;101952.28;;;11.72;72.10
71384;BME280;67558;52.166;5.004;2023-02-19T03:30:13;101951.25;;;11.73;72.05
71384;BME280;67558;52.166;5.004;2023-02-19T03:32:57;101955.47;;;11.69;71.96
71384;BME280;67558;52.166;5.004;2023-02-19T03:35:32;101954.97;;;11.72;72.04
71384;BME280;67558;52.166;5.004;2023-02-19T03:38:06;101963.56;;;11.74;72.15
71384;BME280;67558;52.166;5.004;2023-02-19T03:40:41;101949.13;;;11.75;72.08
71384;BME280;67558;52.166;5.004;2023-02-19T03:46:08;101962.19;;;11.72;72.26
71384;BME280;67558;52.166;5.004;2023-02-19T03:48:43;101956.59;;;11.73;72.01
71384;BME280;67558;52.166;5.004;2023-02-19T03:51:44;101963.56;;;11.74;72.09
71384;BME280;67558;52.166;5.004;2023-02-19T03:54:19;101977.31;;;11.78;71.94
71384;BME280;67558;52.166;5.004;2023-02-19T03:57:01;101983.47;;;11.78;72.16
71384;BME280;67558;52.166;5.004;2023-02-19T03:59:58;101981.94;;;11.82;71.66
71384;BME280;67558;52.166;5.004;2023-02-19T04:05:10;101979.19;;;11.77;71.78
71384;BME280;67558;52.166;5.004;2023-02-19T04:07:40;101982.09;;;11.76;71.94
71384;BME280;67558;52.166;5.004;2023-02-19T04:10:08;101985.00;;;11.74;71.97
71384;BME280;67558;52.166;5.004;2023-02-19T04:12:38;101988.75;;;11.73;72.08
71384;BME280;67558;52.166;5.004;2023-02-19T04:15:09;101990.94;;;11.76;72.06
71384;BME280;67558;52.166;5.004;2023-02-19T04:17:38;102004.44;;;11.81;71.88
71384;BME280;67558;52.166;5.004;2023-02-19T04:20:07;102002.25;;;11.78;71.81
71384;BME280;67558;52.166;5.004;2023-02-19T04:22:35;101999.31;;;11.80;71.77
71384;BME280;67558;52.166;5.004;2023-02-19T04:25:01;102008.16;;;11.80;71.57
71384;BME280;67558;52.166;5.004;2023-02-19T04:27:27;102003.31;;;11.77;71.58
71384;BME280;67558;52.166;5.004;2023-02-19T04:29:52;102009.25;;;11.79;71.91
71384;BME280;67558;52.166;5.004;2023-02-19T04:32:17;102011.81;;;11.74;72.00
71384;BME280;67558;52.166;5.004;2023-02-19T04:34:43;102004.13;;;11.78;71.79
71384;BME280;67558;52.166;5.004;2023-02-19T04:37:08;102017.44;;;11.73;72.13
71384;BME280;67558;52.166;5.004;2023-02-19T04:39:33;102019.84;;;11.74;71.65
71384;BME280;67558;52.166;5.004;2023-02-19T04:41:59;102033.25;;;11.74;71.96
71384;BME280;67558;52.166;5.004;2023-02-19T04:44:24;102035.63;;;11.71;72.05
71384;BME280;67558;52.166;5.004;2023-02-19T04:46:49;102045.88;;;11.74;71.60
71384;BME280;67558;52.166;5.004;2023-02-19T04:49:15;102055.03;;;11.78;71.67
71384;BME280;67558;52.166;5.004;2023-02-19T04:51:40;102052.59;;;11.76;71.79
71384;BME280;67558;52.166;5.004;2023-02-19T04:54:06;102060.56;;;11.71;71.67
71384;BME280;67558;52.166;5.004;2023-02-19T04:56:31;102052.53;;;11.71;71.61
71384;BME280;67558;52.166;5.004;2023-02-19T04:58:57;102057.09;;;11.71;71.38
71384;BME280;67558;52.166;5.004;2023-02-19T05:01:23;102057.88;;;11.71;71.53
71384;BME280;67558;52.166;5.004;2023-02-19T05:03:49;102065.59;;;11.67;71.49
71384;BME280;67558;52.166;5.004;2023-02-19T05:06:14;102071.28;;;11.71;71.57
71384;BME280;67558;52.166;5.004;2023-02-19T05:08:40;102069.66;;;11.70;71.34
71384;BME280;67558;52.166;5.004;2023-02-19T05:11:07;102076.16;;;11.74;71.03
71384;BME280;67558;52.166;5.004;2023-02-19T05:13:34;102067.22;;;11.68;71.00
71384;BME280;67558;52.166;5.004;2023-02-19T05:16:11;102079.81;;;11.68;70.91
71384;BME280;67558;52.166;5.004;2023-02-19T05:18:38;102081.44;;;11.69;70.81
71384;BME280;67558;52.166;5.004;2023-02-19T05:21:04;102084.13;;;11.69;70.85
71384;BME280;67558;52.166;5.004;2023-02-19T05:23:30;102087.38;;;11.71;70.80
71384;BME280;67558;52.166;5.004;2023-02-19T05:25:55;102104.50;;;11.70;70.59
71384;BME280;67558;52.166;5.004;2023-02-19T05:28:21;102089.63;;;11.62;70.53
71384;BME280;67558;52.166;5.004;2023-02-19T05:30:53;102092.38;;;11.67;70.41
71384;BME280;67558;52.166;5.004;2023-02-19T05:33:20;102089.25;;;11.71;70.15
71384;BME280;67558;52.166;5.004;2023-02-19T05:35:49;102099.69;;;11.72;70.14
71384;BME280;67558;52.166;5.004;2023-02-19T05:38:16;102087.28;;;11.66;70.17
71384;BME280;67558;52.166;5.004;2023-02-19T05:40:42;102093.53;;;11.72;69.91
71384;BME280;67558;52.166;5.004;2023-02-19T05:43:08;102095.91;;;11.68;70.05
71384;BME280;67558;52.166;5.004;2023-02-19T05:45:34;102096.44;;;11.70;69.85
71384;BME280;67558;52.166;5.004;2023-02-19T05:48:00;102096.13;;;11.66;69.93
71384;BME280;67558;52.166;5.004;2023-02-19T05:50:25;102087.88;;;11.68;69.85
71384;BME280;67558;52.166;5.004;2023-02-19T05:52:50;102092.72;;;11.71;69.72
71384;BME280;67558;52.166;5.004;2023-02-19T05:55:16;102089.81;;;11.73;69.72
71384;BME280;67558;52.166;5.004;2023-02-19T05:57:43;102103.22;;;11.73;69.57
71384;BME280;67558;52.166;5.004;2023-02-19T06:00:14;102109.31;;;11.68;69.75
71384;BME280;67558;52.166;5.004;2023-02-19T06:02:40;102105.47;;;11.64;69.96
71384;BME280;67558;52.166;5.004;2023-02-19T06:05:06;102105.56;;;11.69;69.74
71384;BME280;67558;52.166;5.004;2023-02-19T06:07:31;102106.06;;;11.66;69.80
71384;BME280;67558;52.166;5.004;2023-02-19T06:09:57;102124.81;;;11.66;69.85
71384;BME280;67558;52.166;5.004;2023-02-19T06:12:22;102123.75;;;11.67;69.85
71384;BME280;67558;52.166;5.004;2023-02-19T06:14:48;102135.53;;;11.66;69.89
71384;BME280;67558;52.166;5.004;2023-02-19T06:17:14;102133.69;;;11.55;70.20
71384;BME280;67558;52.166;5.004;2023-02-19T06:19:39;102151.66;;;11.54;70.23
71384;BME280;67558;52.166;5.004;2023-02-19T06:22:05;102144.41;;;11.55;70.10
71384;BME280;67558;52.166;5.004;2023-02-19T06:24:30;102154.19;;;11.61;70.19
71384;BME280;67558;52.166;5.004;2023-02-19T06:26:56;102162.22;;;11.61;70.35
71384;BME280;67558;52.166;5.004;2023-02-19T06:29:21;102161.06;;;11.57;70.45
71384;BME280;67558;52.166;5.004;2023-02-19T06:31:47;102157.00;;;11.54;70.63
71384;BME280;67558;52.166;5.004;2023-02-19T06:34:12;102158.06;;;11.53;70.72
71384;BME280;67558;52.166;5.004;2023-02-19T06:36:37;102159.69;;;11.54;70.83
71384;BME280;67558;52.166;5.004;2023-02-19T06:39:03;102149.84;;;11.43;70.93
71384;BME280;67558;52.166;5.004;2023-02-19T06:41:29;102166.81;;;11.48;70.92
71384;BME280;67558;52.166;5.004;2023-02-19T06:43:56;102161.34;;;11.43;71.08
71384;BME280;67558;52.166;5.004;2023-02-19T06:46:22;102157.97;;;11.48;70.92
71384;BME280;67558;52.166;5.004;2023-02-19T06:48:47;102165.69;;;11.44;71.01
71384;BME280;67558;52.166;5.004;2023-02-19T06:51:18;102169.97;;;11.45;71.11
71384;BME280;67558;52.166;5.004;2023-02-19T06:53:46;102181.25;;;11.47;70.98
71384;BME280;67558;52.166;5.004;2023-02-19T06:56:29;102182.78;;;11.43;70.99
71384;BME280;67558;52.166;5.004;2023-02-19T06:59:00;102186.13;;;11.51;70.85
71384;BME280;67558;52.166;5.004;2023-02-19T07:01:26;102187.69;;;11.46;70.78
71384;BME280;67558;52.166;5.004;2023-02-19T07:03:55;102197.00;;;11.44;70.96
71384;BME280;67558;52.166;5.004;2023-02-19T07:06:22;102208.06;;;11.47;70.92
71384;BME280;67558;52.166;5.004;2023-02-19T07:08:49;102217.25;;;11.52;71.10
71384;BME280;67558;52.166;5.004;2023-02-19T07:11:14;102217.25;;;11.52;70.91
71384;BME280;67558;52.166;5.004;2023-02-19T07:13:40;102222.13;;;11.55;70.93
71384;BME280;67558;52.166;5.004;2023-02-19T07:16:07;102226.91;;;11.53;70.93
71384;BME280;67558;52.166;5.004;2023-02-19T07:18:33;102239.50;;;11.52;71.12
71384;BME280;67558;52.166;5.004;2023-02-19T07:21:10;102230.22;;;11.43;71.31
71384;BME280;67558;52.166;5.004;2023-02-19T07:23:36;102234.38;;;11.51;71.19
71384;BME280;67558;52.166;5.004;2023-02-19T07:26:02;102235.91;;;11.46;71.39
71384;BME280;67558;52.166;5.004;2023-02-19T07:28:27;102242.66;;;11.49;71.45
71384;BME280;67558;52.166;5.004;2023-02-19T07:30:53;102249.88;;;11.48;71.39
71384;BME280;67558;52.166;5.004;2023-02-19T07:33:18;102254.31;;;11.43;71.64
71384;BME280;67558;52.166;5.004;2023-02-19T07:35:48;102255.00;;;11.50;71.52
71384;BME280;67558;52.166;5.004;2023-02-19T07:38:17;102257.00;;;11.43;71.74
71384;BME280;67558;52.166;5.004;2023-02-19T07:40:50;102259.34;;;11.39;71.94
71384;BME280;67558;52.166;5.004;2023-02-19T07:43:17;102262.50;;;11.36;71.81
71384;BME280;67558;52.166;5.004;2023-02-19T07:45:42;102273.44;;;11.46;71.90
71384;BME280;67558;52.166;5.004;2023-02-19T07:48:08;102271.78;;;11.45;71.97
71384;BME280;67558;52.166;5.004;2023-02-19T07:50:33;102273.53;;;11.52;71.75
71384;BME280;67558;52.166;5.004;2023-02-19T07:52:58;102273.53;;;11.52;71.64
71384;BME280;67558;52.166;5.004;2023-02-19T07:55:24;102276.56;;;11.55;71.73
71384;BME280;67558;52.166;5.004;2023-02-19T07:57:49;102288.53;;;11.53;71.90
71384;BME280;67558;52.166;5.004;2023-02-19T08:00:15;102288.53;;;11.53;71.90
71384;BME280;67558;52.166;5.004;2023-02-19T08:02:40;102289.72;;;11.57;71.95
71384;BME280;67558;52.166;5.004;2023-02-19T08:05:29;102286.34;;;11.50;71.66
71384;BME280;67558;52.166;5.004;2023-02-19T08:07:55;102289.38;;;11.53;71.87
71384;BME280;67558;52.166;5.004;2023-02-19T08:10:21;102281.56;;;11.52;71.70
71384;BME280;67558;52.166;5.004;2023-02-19T08:13:04;102296.94;;;11.56;72.02
71384;BME280;67558;52.166;5.004;2023-02-19T08:18:31;102319.78;;;11.59;71.90
71384;BME280;67558;52.166;5.004;2023-02-19T08:20:58;102319.78;;;11.59;72.10
71384;BME280;67558;52.166;5.004;2023-02-19T08:23:24;102315.81;;;11.61;71.95
71384;BME280;67558;52.166;5.004;2023-02-19T08:25:51;102317.81;;;11.66;72.05
71384;BME280;67558;52.166;5.004;2023-02-19T08:28:17;102319.50;;;11.72;71.77
71384;BME280;67558;52.166;5.004;2023-02-19T08:30:44;102321.50;;;11.77;71.67
71384;BME280;67558;52.166;5.004;2023-02-19T08:33:15;102320.94;;;11.75;71.62
71384;BME280;67558;52.166;5.004;2023-02-19T08:35:41;102331.16;;;11.78;71.71
71384;BME280;67558;52.166;5.004;2023-02-19T08:38:08;102346.53;;;11.82;71.65
71384;BME280;67558;52.166;5.004;2023-02-19T08:40:35;102339.44;;;11.76;71.86
71384;BME280;67558;52.166;5.004;2023-02-19T08:43:05;102338.41;;;11.77;71.98
71384;BME280;67558;52.166;5.004;2023-02-19T08:45:31;102354.59;;;11.82;71.87
71384;BME280;67558;52.166;5.004;2023-02-19T08:47:57;102351.81;;;11.89;71.36
71384;BME280;67558;52.166;5.004;2023-02-19T08:50:23;102350.88;;;11.83;71.53
71384;BME280;67558;52.166;5.004;2023-02-19T08:52:48;102350.75;;;11.78;71.76
71384;BME280;67558;52.166;5.004;2023-02-19T08:55:14;102340.03;;;11.78;71.62
71384;BME280;67558;52.166;5.004;2023-02-19T08:57:39;102343.28;;;11.80;71.51
71384;BME280;67558;52.166;5.004;2023-02-19T09:00:05;102344.00;;;11.87;71.29
71384;BME280;67558;52.166;5.004;2023-02-19T09:02:31;102351.94;;;11.94;71.07
71384;BME280;67558;52.166;5.004;2023-02-19T09:04:57;102343.06;;;11.94;71.07
71384;BME280;67558;52.166;5.004;2023-02-19T09:07:22;102351.69;;;11.96;71.33
71384;BME280;67558;52.166;5.004;2023-02-19T09:09:48;102344.13;;;11.93;71.19
71384;BME280;67558;52.166;5.004;2023-02-19T09:12:13;102354.47;;;12.01;71.38
71384;BME280;67558;52.166;5.004;2023-02-19T09:14:39;102357.03;;;12.07;71.51
71384;BME280;67558;52.166;5.004;2023-02-19T09:17:06;102365.75;;;12.15;71.52
71384;BME280;67558;52.166;5.004;2023-02-19T09:19:32;102366.66;;;12.20;70.88
71384;BME280;67558;52.166;5.004;2023-02-19T09:21:57;102371.09;;;12.15;70.55
71384;BME280;67558;52.166;5.004;2023-02-19T09:24:23;102377.50;;;12.25;70.18
71384;BME280;67558;52.166;5.004;2023-02-19T09:26:53;102372.94;;;12.26;70.22
71384;BME280;67558;52.166;5.004;2023-02-19T09:29:19;102385.91;;;12.29;70.12
71384;BME280;67558;52.166;5.004;2023-02-19T09:31:45;102399.66;;;12.33;69.79
71384;BME280;67558;52.166;5.004;2023-02-19T09:34:10;102412.50;;;12.31;70.24
71384;BME280;67558;52.166;5.004;2023-02-19T09:36:36;102415.28;;;12.36;69.88
71384;BME280;67558;52.166;5.004;2023-02-19T09:39:03;102416.44;;;12.40;69.82
71384;BME280;67558;52.166;5.004;2023-02-19T09:41:38;102426.66;;;12.43;69.69
71384;BME280;67558;52.166;5.004;2023-02-19T09:44:11;102427.03;;;12.46;69.51
71384;BME280;67558;52.166;5.004;2023-02-19T09:46:42;102428.91;;;12.46;69.53
71384;BME280;67558;52.166;5.004;2023-02-19T09:49:16;102423.53;;;12.46;69.31
71384;BME280;67558;52.166;5.004;2023-02-19T09:51:46;102438.34;;;12.48;69.17
71384;BME280;67558;52.166;5.004;2023-02-19T09:54:19;102441.84;;;12.49;69.11
71384;BME280;67558;52.166;5.004;2023-02-19T09:56:45;102450.81;;;12.55;69.30
71384;BME280;67558;52.166;5.004;2023-02-19T09:59:21;102450.00;;;12.54;68.80
71384;BME280;67558;52.166;5.004;2023-02-19T10:01:53;102446.75;;;12.52;68.79
71384;BME280;67558;52.166;5.004;2023-02-19T10:04:20;102456.63;;;12.52;68.57
71384;BME280;67558;52.166;5.004;2023-02-19T10:06:46;102456.97;;;12.55;68.73
71384;BME280;67558;52.166;5.004;2023-02-19T10:11:42;102470.03;;;12.63;68.56
71384;BME280;67558;52.166;5.004;2023-02-19T10:14:14;102469.09;;;12.69;68.45
71384;BME280;67558;52.166;5.004;2023-02-19T10:16:44;102481.00;;;12.74;68.37
71384;BME280;67558;52.166;5.004;2023-02-19T10:19:14;102487.75;;;12.76;68.10
71384;BME280;67558;52.166;5.004;2023-02-19T10:21:40;102481.56;;;12.76;68.11
71384;BME280;67558;52.166;5.004;2023-02-19T10:24:06;102489.13;;;12.79;68.29
71384;BME280;67558;52.166;5.004;2023-02-19T10:26:33;102489.38;;;12.77;68.32
71384;BME280;67558;52.166;5.004;2023-02-19T10:29:02;102487.63;;;12.71;68.33
71384;BME280;67558;52.166;5.004;2023-02-19T10:31:32;102501.88;;;12.72;68.32
71384;BME280;67558;52.166;5.004;2023-02-19T10:33:59;102511.34;;;12.62;68.71
71384;BME280;67558;52.166;5.004;2023-02-19T10:36:38;102498.63;;;12.58;68.36
71384;BME280;67558;52.166;5.004;2023-02-19T10:41:52;102511.22;;;12.69;68.61
71384;BME280;67558;52.166;5.004;2023-02-19T10:44:35;102499.22;;;12.60;68.75
71384;BME280;67558;52.166;5.004;2023-02-19T10:47:03;102500.72;;;12.67;68.73
71384;BME280;67558;52.166;5.004;2023-02-19T10:49:35;102513.22;;;12.62;68.78
71384;BME280;67558;52.166;5.004;2023-02-19T10:54:41;102521.66;;;12.42;68.16
71384;BME280;67558;52.166;5.004;2023-02-19T10:59:51;102513.28;;;12.15;67.61
71384;BME280;67558;52.166;5.004;2023-02-19T11:02:20;102507.59;;;12.11;67.60
71384;BME280;67558;52.166;5.004;2023-02-19T11:05:05;102503.38;;;12.03;67.77
71384;BME280;67558;52.166;5.004;2023-02-19T11:07:37;102511.53;;;11.97;68.10
71384;BME280;67558;52.166;5.004;2023-02-19T11:10:04;102500.94;;;11.90;68.19
71384;BME280;67558;52.166;5.004;2023-02-19T11:12:32;102512.34;;;11.85;68.31
71384;BME280;67558;52.166;5.004;2023-02-19T11:15:28;102522.31;;;11.78;68.06
71384;BME280;67558;52.166;5.004;2023-02-19T11:20:32;102526.94;;;11.59;68.08
71384;BME280;67558;52.166;5.004;2023-02-19T11:23:14;102527.22;;;11.58;68.67
71384;BME280;67558;52.166;5.004;2023-02-19T11:25:45;102531.28;;;11.60;68.76
71384;BME280;67558;52.166;5.004;2023-02-19T11:33:56;102535.59;;;11.61;68.60
71384;BME280;67558;52.166;5.004;2023-02-19T11:36:28;102532.56;;;11.58;68.43
71384;BME280;67558;52.166;5.004;2023-02-19T11:38:54;102549.25;;;11.60;68.67
71384;BME280;67558;52.166;5.004;2023-02-19T11:52:51;102527.84;;;11.41;68.27
71384;BME280;67558;52.166;5.004;2023-02-19T11:54:53;102532.19;;;11.42;68.26
71384;BME280;67558;52.166;5.004;2023-02-19T11:57:42;102531.00;;;11.38;68.20
71384;BME280;67558;52.166;5.004;2023-02-19T12:06:04;102537.53;;;11.42;68.81
71384;BME280;67558;52.166;5.004;2023-02-19T12:08:56;102535.56;;;11.50;68.22
71384;BME280;67558;52.166;5.004;2023-02-19T12:11:50;102538.38;;;11.55;68.37
71384;BME280;67558;52.166;5.004;2023-02-19T12:14:48;102547.00;;;11.57;68.52
71384;BME280;67558;52.166;5.004;2023-02-19T12:17:39;102548.97;;;11.61;68.28
71384;BME280;67558;52.166;5.004;2023-02-19T12:22:51;102550.97;;;11.54;68.25
71384;BME280;67558;52.166;5.004;2023-02-19T12:30:47;102540.81;;;11.56;67.97
71384;BME280;67558;52.166;5.004;2023-02-19T12:39:50;102557.31;;;11.41;67.95
71384;BME280;67558;52.166;5.004;2023-02-19T12:44:41;102549.47;;;11.28;67.84
71384;BME280;67558;52.166;5.004;2023-02-19T12:47:14;102560.38;;;11.15;68.10
71384;BME280;67558;52.166;5.004;2023-02-19T12:49:45;102572.00;;;11.09;68.01
71384;BME280;67558;52.166;5.004;2023-02-19T12:52:25;102577.13;;;11.10;68.02
71384;BME280;67558;52.166;5.004;2023-02-19T12:54:53;102583.50;;;11.09;68.03
71384;BME280;67558;52.166;5.004;2023-02-19T12:57:25;102587.00;;;11.10;67.74
71384;BME280;67558;52.166;5.004;2023-02-19T12:59:57;102592.31;;;10.98;67.97
71384;BME280;67558;52.166;5.004;2023-02-19T13:02:48;102596.25;;;10.95;67.73
71384;BME280;67558;52.166;5.004;2023-02-19T13:05:45;102602.63;;;10.94;68.16
71384;BME280;67558;52.166;5.004;2023-02-19T13:08:31;102611.13;;;10.91;68.07
71384;BME280;67558;52.166;5.004;2023-02-19T13:11:14;102617.81;;;10.82;68.06
71384;BME280;67558;52.166;5.004;2023-02-19T13:13:56;102621.38;;;10.76;68.19
71384;BME280;67558;52.166;5.004;2023-02-19T13:16:25;102629.19;;;10.77;67.92
71384;BME280;67558;52.166;5.004;2023-02-19T13:19:03;102633.28;;;10.80;67.79
71384;BME280;67558;52.166;5.004;2023-02-19T13:21:35;102632.75;;;10.71;68.09
71384;BME280;67558;52.166;5.004;2023-02-19T13:24:23;102633.34;;;10.73;67.97
71384;BME280;67558;52.166;5.004;2023-02-19T13:35:10;102655.75;;;10.54;67.84
71384;BME280;67558;52.166;5.004;2023-02-19T13:37:42;102653.75;;;10.49;67.76
71384;BME280;67558;52.166;5.004;2023-02-19T13:40:25;102664.72;;;10.41;68.12
71384;BME280;67558;52.166;5.004;2023-02-19T13:42:53;102661.81;;;10.42;67.83
71384;BME280;67558;52.166;5.004;2023-02-19T13:45:31;102665.56;;;10.41;68.05
71384;BME280;67558;52.166;5.004;2023-02-19T13:48:00;102666.84;;;10.32;68.07
71384;BME280;67558;52.166;5.004;2023-02-19T13:50:31;102674.66;;;10.34;68.21
71384;BME280;67558;52.166;5.004;2023-02-19T13:52:59;102676.13;;;10.30;68.10
71384;BME280;67558;52.166;5.004;2023-02-19T13:55:46;102682.69;;;10.34;68.23
71384;BME280;67558;52.166;5.004;2023-02-19T14:01:03;102678.59;;;10.31;68.28
71384;BME280;67558;52.166;5.004;2023-02-19T14:06:03;102690.44;;;10.42;68.14
71384;BME280;67558;52.166;5.004;2023-02-19T14:08:49;102687.31;;;10.45;67.33
71384;BME280;67558;52.166;5.004;2023-02-19T14:11:16;102686.03;;;10.54;67.54
71384;BME280;67558;52.166;5.004;2023-02-19T14:14:02;102687.88;;;10.54;66.97
71384;BME280;67558;52.166;5.004;2023-02-19T14:16:54;102681.88;;;10.58;67.15
71384;BME280;67558;52.166;5.004;2023-02-19T14:19:44;102679.63;;;10.55;66.37
71384;BME280;67558;52.166;5.004;2023-02-19T14:30:26;102678.91;;;10.66;66.80
71384;BME280;67558;52.166;5.004;2023-02-19T14:32:51;102668.78;;;10.69;66.69
71384;BME280;67558;52.166;5.004;2023-02-19T14:35:23;102661.66;;;10.62;66.87
71384;BME280;67558;52.166;5.004;2023-02-19T14:37:50;102662.03;;;10.66;66.55
71384;BME280;67558;52.166;5.004;2023-02-19T14:40:26;102659.81;;;10.63;66.88